createdAt,value
2019-02-14T00:00:06.496Z,12.50
2019-02-14T00:02:34.879Z,13.35
2019-02-14T00:05:03.900Z,13.58
2019-02-14T00:07:32.303Z,11.70
2019-02-14T00:10:00.689Z,12.47
2019-02-14T00:12:29.079Z,12.37
2019-02-14T00:14:57.471Z,12.45
2019-02-14T00:17:25.855Z,11.93
2019-02-14T00:19:54.240Z,12.05
2019-02-14T00:22:22.627Z,12.37
2019-02-14T00:24:51.020Z,13.32
2019-02-14T00:27:19.475Z,11.85
2019-02-14T00:29:47.860Z,12.60
2019-02-14T00:32:16.248Z,11.78
2019-02-14T00:34:44.632Z,11.88
2019-02-14T00:37:13.023Z,12.58
2019-02-14T00:39:41.409Z,11.25
2019-02-14T00:42:09.803Z,11.97
2019-02-14T00:44:38.179Z,11.03
2019-02-14T00:47:06.567Z,10.90
2019-02-14T00:49:34.956Z,11.95
2019-02-14T00:52:03.363Z,12.53
2019-02-14T00:54:31.723Z,11.05
2019-02-14T00:57:00.111Z,10.58
2019-02-14T00:59:28.820Z,12.33
2019-02-14T01:01:57.206Z,11.22
2019-02-14T01:04:25.598Z,10.90
2019-02-14T01:06:53.979Z,11.40
2019-02-14T01:09:22.386Z,12.80
2019-02-14T01:11:50.770Z,10.88
2019-02-14T01:14:19.231Z,10.95
2019-02-14T01:16:47.621Z,12.23
2019-02-14T01:19:16.584Z,12.25
2019-02-14T01:21:44.969Z,12.20
2019-02-14T01:24:13.359Z,12.10
2019-02-14T01:26:41.744Z,13.00
2019-02-14T01:29:10.136Z,11.45
2019-02-14T01:31:38.525Z,12.40
2019-02-14T01:34:06.985Z,12.53
2019-02-14T01:36:35.365Z,12.95
2019-02-14T01:39:04.207Z,13.28
2019-02-14T01:41:32.585Z,13.68
2019-02-14T01:44:00.985Z,12.07
2019-02-14T01:46:29.361Z,15.30
2019-02-14T01:48:57.751Z,21.68
2019-02-14T01:51:26.136Z,16.00
2019-02-14T01:53:54.533Z,18.12
2019-02-14T01:56:22.923Z,14.18
2019-02-14T01:58:51.313Z,14.93
2019-02-14T02:01:19.698Z,15.40
2019-02-14T02:03:48.156Z,15.83
2019-02-14T02:06:16.540Z,14.98
2019-02-14T02:08:44.931Z,15.65
2019-02-14T02:11:13.338Z,15.08
2019-02-14T02:13:41.736Z,15.55
2019-02-14T02:16:10.123Z,14.20
2019-02-14T02:18:39.583Z,13.72
2019-02-14T02:21:07.966Z,15.28
2019-02-14T02:23:36.348Z,14.10
2019-02-14T02:26:04.800Z,12.45
2019-02-14T02:28:33.335Z,13.10
2019-02-14T02:31:01.708Z,11.73
2019-02-14T02:33:30.128Z,11.97
2019-02-14T02:36:00.503Z,12.00
2019-02-14T02:38:28.601Z,14.00
2019-02-14T02:40:56.988Z,13.53
2019-02-14T02:43:25.378Z,12.43
2019-02-14T02:45:53.764Z,12.20
2019-02-14T02:48:22.163Z,10.60
2019-02-14T02:50:50.551Z,10.53
2019-02-14T02:53:19.005Z,10.40
2019-02-14T02:55:47.384Z,10.58
2019-02-14T02:58:15.778Z,12.53
2019-02-14T03:00:44.468Z,11.08
2019-02-14T03:03:12.855Z,12.00
2019-02-14T03:05:41.232Z,11.20
2019-02-14T03:08:09.646Z,10.58
2019-02-14T03:10:38.009Z,11.80
2019-02-14T03:13:06.400Z,10.70
2019-02-14T03:15:34.792Z,10.45
2019-02-14T03:18:03.248Z,10.23
2019-02-14T03:20:31.922Z,10.58
2019-02-14T03:23:00.303Z,10.18
2019-02-14T03:25:28.695Z,10.95
2019-02-14T03:27:57.080Z,10.18
2019-02-14T03:30:25.475Z,10.58
2019-02-14T03:32:53.852Z,10.85
2019-02-14T03:35:22.245Z,10.32
2019-02-14T03:37:50.627Z,10.20
2019-02-14T03:40:19.021Z,9.70
2019-02-14T03:42:47.400Z,10.28
2019-02-14T03:45:19.863Z,10.10
2019-02-14T03:47:48.247Z,10.90
2019-02-14T03:50:16.632Z,11.08
2019-02-14T03:52:45.367Z,10.93
2019-02-14T03:55:13.755Z,11.20
2019-02-14T03:57:42.147Z,10.65
2019-02-14T04:00:13.239Z,10.85
2019-02-14T04:02:41.625Z,10.70
2019-02-14T04:05:10.081Z,11.15
2019-02-14T04:07:39.104Z,10.08
2019-02-14T04:10:10.396Z,10.43
2019-02-14T04:12:38.776Z,10.35
2019-02-14T04:15:13.019Z,10.40
2019-02-14T04:17:41.401Z,11.65
2019-02-14T04:20:10.931Z,10.82
2019-02-14T04:22:39.312Z,10.20
2019-02-14T04:25:09.239Z,10.78
2019-02-14T04:27:37.625Z,11.05
2019-02-14T04:30:09.105Z,10.15
2019-02-14T04:32:37.488Z,11.03
2019-02-14T04:35:06.149Z,10.93
2019-02-14T04:37:34.527Z,10.82
2019-02-14T04:40:03.091Z,11.35
2019-02-14T04:42:31.715Z,9.78
2019-02-14T04:45:00.251Z,11.45
2019-02-14T04:47:28.768Z,11.75
2019-02-14T04:49:57.163Z,10.95
2019-02-14T04:52:25.545Z,9.88
2019-02-14T04:54:53.939Z,11.12
2019-02-14T04:57:22.323Z,10.63
2019-02-14T04:59:50.708Z,11.85
2019-02-14T05:02:19.089Z,10.93
2019-02-14T05:04:47.484Z,10.20
2019-02-14T05:07:15.869Z,11.30
2019-02-14T05:09:44.264Z,11.25
2019-02-14T05:12:12.644Z,10.38
2019-02-14T05:14:41.035Z,12.18
2019-02-14T05:17:09.414Z,11.57
2019-02-14T05:19:37.884Z,13.68
2019-02-14T05:22:06.276Z,12.43
2019-02-14T05:24:34.669Z,13.83
2019-02-14T05:27:03.060Z,12.30
2019-02-14T05:29:31.455Z,9.98
2019-02-14T05:31:59.840Z,11.80
2019-02-14T05:34:28.240Z,11.18
2019-02-14T05:36:56.703Z,10.55
2019-02-14T05:39:25.094Z,11.15
2019-02-14T05:41:53.480Z,10.28
2019-02-14T05:44:21.881Z,11.50
2019-02-14T05:46:50.267Z,11.48
2019-02-14T05:49:18.655Z,10.48
2019-02-14T05:51:47.035Z,9.23
2019-02-14T05:54:15.441Z,10.85
2019-02-14T05:56:43.828Z,10.48
2019-02-14T05:59:12.224Z,10.72
2019-02-14T06:01:40.619Z,11.20
2019-02-14T06:04:09.016Z,10.48
2019-02-14T06:06:37.404Z,11.10
2019-02-14T06:09:06.376Z,11.22
2019-02-14T06:11:34.776Z,10.00
2019-02-14T06:14:03.191Z,11.45
2019-02-14T06:16:31.586Z,10.82
2019-02-14T06:18:59.985Z,10.90
2019-02-14T06:21:28.375Z,10.53
2019-02-14T06:23:56.768Z,10.40
2019-02-14T06:26:25.477Z,11.25
2019-02-14T06:28:53.864Z,11.93
2019-02-14T06:31:22.515Z,10.23
2019-02-14T06:33:50.914Z,11.80
2019-02-14T06:36:19.355Z,10.88
2019-02-14T06:38:47.845Z,10.80
2019-02-14T06:41:16.257Z,11.73
2019-02-14T06:43:44.645Z,11.60
2019-02-14T06:46:13.047Z,11.53
2019-02-14T06:48:41.446Z,12.45
2019-02-14T06:51:09.855Z,11.28
2019-02-14T06:53:38.234Z,12.45
2019-02-14T06:56:06.634Z,11.40
2019-02-14T06:58:35.014Z,12.23
2019-02-14T07:01:03.419Z,12.35
2019-02-14T07:03:31.808Z,14.35
2019-02-14T07:06:00.200Z,12.88
2019-02-14T07:08:28.584Z,12.35
2019-02-14T07:10:57.695Z,13.83
2019-02-14T07:13:26.128Z,12.63
2019-02-14T07:15:54.551Z,11.08
2019-02-14T07:18:22.978Z,11.12
2019-02-14T07:20:51.373Z,10.28
2019-02-14T07:23:19.773Z,10.72
2019-02-14T07:25:48.175Z,9.80
2019-02-14T07:28:16.576Z,11.15
2019-02-14T07:30:44.980Z,11.35
2019-02-14T07:33:32.708Z,10.13
2019-02-14T07:36:01.113Z,11.18
2019-02-14T07:38:29.503Z,9.05
2019-02-14T07:40:57.900Z,10.20
2019-02-14T07:43:26.276Z,10.50
2019-02-14T07:45:54.668Z,8.70
2019-02-14T07:48:23.047Z,10.00
2019-02-14T07:50:51.442Z,9.30
2019-02-14T07:53:19.865Z,9.90
2019-02-14T07:55:48.242Z,8.95
2019-02-14T07:58:17.149Z,8.80
2019-02-14T08:00:45.535Z,9.15
2019-02-14T08:03:13.931Z,8.13
2019-02-14T08:05:42.300Z,8.43
2019-02-14T08:08:10.703Z,8.23
2019-02-14T08:10:39.164Z,7.80
2019-02-14T08:13:07.681Z,7.70
2019-02-14T08:15:36.071Z,7.92
2019-02-14T08:18:04.474Z,8.13
2019-02-14T08:20:32.856Z,9.28
2019-02-14T08:23:01.331Z,9.88
2019-02-14T08:25:29.716Z,9.60
2019-02-14T08:27:58.113Z,8.03
2019-02-14T08:30:26.492Z,9.53
2019-02-14T08:32:54.894Z,7.92
2019-02-14T08:35:23.284Z,7.28
2019-02-14T08:37:51.680Z,7.45
2019-02-14T08:40:23.142Z,6.87
2019-02-14T08:42:51.536Z,6.70
2019-02-14T08:45:19.915Z,6.72
2019-02-14T08:47:48.315Z,7.15
2019-02-14T08:50:16.700Z,7.65
2019-02-14T08:52:45.100Z,7.85
2019-02-14T08:55:13.487Z,7.47
2019-02-14T08:57:41.896Z,7.08
2019-02-14T09:00:12.690Z,7.37
2019-02-14T09:02:41.095Z,7.30
2019-02-14T09:05:09.548Z,6.92
2019-02-14T09:07:37.983Z,7.33
2019-02-14T09:10:16.585Z,7.67
2019-02-14T09:12:44.974Z,7.33
2019-02-14T09:15:14.508Z,7.20
2019-02-14T09:17:43.296Z,7.97
2019-02-14T09:20:17.373Z,7.58
2019-02-14T09:22:45.766Z,9.03
2019-02-14T09:25:14.158Z,9.38
2019-02-14T09:27:42.544Z,9.43
2019-02-14T09:30:13.158Z,11.40
2019-02-14T09:35:09.991Z,10.65
2019-02-14T09:37:38.376Z,11.03
2019-02-14T09:40:12.207Z,10.13
2019-02-14T09:42:40.598Z,9.55
2019-02-14T09:45:11.350Z,8.40
2019-02-14T09:47:39.810Z,8.88
2019-02-14T09:50:10.555Z,7.83
2019-02-14T09:52:39.104Z,8.10
2019-02-14T09:55:09.943Z,8.05
2019-02-14T09:57:38.624Z,7.22
2019-02-14T10:00:17.419Z,8.05
2019-02-14T10:02:45.810Z,8.60
2019-02-14T10:05:15.274Z,8.50
2019-02-14T10:07:43.698Z,7.83
2019-02-14T10:10:17.631Z,8.55
2019-02-14T10:12:45.994Z,8.35
2019-02-14T10:15:14.612Z,7.92
2019-02-14T10:17:43.009Z,7.97
2019-02-14T10:20:15.905Z,8.25
2019-02-14T10:22:44.280Z,9.03
2019-02-14T10:25:13.220Z,8.10
2019-02-14T10:27:41.602Z,8.78
2019-02-14T10:30:13.040Z,9.85
2019-02-14T10:32:41.419Z,9.33
2019-02-14T10:35:10.091Z,8.73
2019-02-14T10:37:38.484Z,8.88
2019-02-14T10:40:09.780Z,9.35
2019-02-14T10:42:38.175Z,8.65
2019-02-14T10:45:12.255Z,10.98
2019-02-14T10:47:40.655Z,10.00
2019-02-14T10:50:10.794Z,8.70
2019-02-14T10:52:39.175Z,8.80
2019-02-14T10:55:10.027Z,9.88
2019-02-14T10:57:38.502Z,9.00
2019-02-14T11:00:16.210Z,11.08
2019-02-14T11:02:44.461Z,10.10
2019-02-14T11:05:14.404Z,9.88
2019-02-14T11:07:42.791Z,9.98
2019-02-14T11:10:13.027Z,9.55
2019-02-14T11:12:41.408Z,9.48
2019-02-14T11:15:12.647Z,9.98
2019-02-14T11:17:41.032Z,10.00
2019-02-14T11:20:11.872Z,10.28
2019-02-14T11:22:40.251Z,10.68
2019-02-14T11:25:11.354Z,9.85
2019-02-14T11:27:39.748Z,9.98
2019-02-14T11:30:13.820Z,9.48
2019-02-14T11:32:42.290Z,10.20
2019-02-14T11:35:11.064Z,10.80
2019-02-14T11:37:39.836Z,9.45
2019-02-14T11:40:10.863Z,10.00
2019-02-14T11:42:39.340Z,10.03
2019-02-14T11:45:16.519Z,10.10
2019-02-14T11:47:45.237Z,11.35
2019-02-14T11:50:13.648Z,9.60
2019-02-14T11:52:42.063Z,10.88
2019-02-14T11:55:11.187Z,10.70
2019-02-14T11:57:39.855Z,9.48
2019-02-14T12:00:15.717Z,10.43
2019-02-14T12:02:44.111Z,13.50
2019-02-14T12:05:12.511Z,11.97
2019-02-14T12:07:40.913Z,11.60
2019-02-14T12:10:13.554Z,12.10
2019-02-14T12:12:40.756Z,11.55
2019-02-14T12:15:11.462Z,12.18
2019-02-14T12:17:39.869Z,11.30
2019-02-14T12:20:12.553Z,12.00
2019-02-14T12:22:46.310Z,10.63
2019-02-14T12:25:13.449Z,10.95
2019-02-14T12:27:41.851Z,13.03
2019-02-14T12:30:12.807Z,11.35
2019-02-14T12:32:41.480Z,11.22
2019-02-14T12:35:09.970Z,12.70
2019-02-14T12:37:38.353Z,11.45
2019-02-14T12:40:09.809Z,12.45
2019-02-14T12:42:38.205Z,11.78
2019-02-14T12:45:09.779Z,11.20
2019-02-14T12:47:38.176Z,11.50
2019-02-14T12:50:09.007Z,11.73
2019-02-14T12:52:37.418Z,12.07
2019-02-14T12:55:06.940Z,12.70
2019-02-14T12:57:35.344Z,11.97
2019-02-14T13:00:05.536Z,11.73
2019-02-14T13:02:33.938Z,12.45
2019-02-14T13:05:02.331Z,12.23
2019-02-14T13:07:30.748Z,12.07
2019-02-14T13:09:59.136Z,13.10
2019-02-14T13:12:27.846Z,11.93
2019-02-14T13:14:56.243Z,12.10
2019-02-14T13:17:24.633Z,12.90
2019-02-14T13:19:53.042Z,13.08
2019-02-14T13:22:21.439Z,12.75
2019-02-14T13:24:49.848Z,12.28
2019-02-14T13:27:18.540Z,14.83
2019-02-14T13:29:47.228Z,13.68
2019-02-14T13:32:15.623Z,12.73
2019-02-14T13:34:44.026Z,13.05
2019-02-14T13:37:12.416Z,12.33
2019-02-14T13:39:40.818Z,11.65
2019-02-14T13:42:09.204Z,13.00
2019-02-14T13:44:37.597Z,12.88
2019-02-14T13:47:05.989Z,12.25
2019-02-14T13:49:34.390Z,12.95
2019-02-14T13:52:02.779Z,13.98
2019-02-14T13:54:31.176Z,12.55
2019-02-14T13:56:59.563Z,12.00
2019-02-14T13:59:27.959Z,14.55
2019-02-14T14:01:56.358Z,15.35
2019-02-14T14:04:25.878Z,14.18
2019-02-14T14:06:54.268Z,13.85
2019-02-14T14:09:22.666Z,14.65
2019-02-14T14:11:51.064Z,14.90
2019-02-14T14:14:19.469Z,13.18
2019-02-14T14:16:47.865Z,14.45
2019-02-14T14:19:16.257Z,16.60
2019-02-14T14:21:44.635Z,15.03
2019-02-14T14:24:13.042Z,15.38
2019-02-14T14:26:41.442Z,14.73
2019-02-14T14:29:09.835Z,16.12
2019-02-14T14:31:38.223Z,15.53
2019-02-14T14:34:06.623Z,16.48
2019-02-14T14:36:35.012Z,15.45
2019-02-14T14:39:04.551Z,15.38
2019-02-14T14:41:33.080Z,17.02
2019-02-14T14:44:03.124Z,15.28
2019-02-14T14:46:32.488Z,17.27
2019-02-14T14:49:00.876Z,18.40
2019-02-14T14:51:29.280Z,17.55
2019-02-14T14:53:57.668Z,17.70
2019-02-14T14:56:26.144Z,17.30
2019-02-14T14:58:54.540Z,18.25
2019-02-14T15:01:22.927Z,18.70
2019-02-14T15:03:52.168Z,19.73
2019-02-14T15:06:20.801Z,17.77
2019-02-14T15:08:49.181Z,18.67
2019-02-14T15:11:17.579Z,17.92
2019-02-14T15:13:45.976Z,18.77
2019-02-14T15:16:14.366Z,19.62
2019-02-14T15:18:42.823Z,19.87
2019-02-14T15:21:11.211Z,20.05
2019-02-14T15:23:39.646Z,16.57
2019-02-14T15:26:08.086Z,17.65
2019-02-14T15:28:37.537Z,18.35
2019-02-14T15:31:06.152Z,18.80
2019-02-14T15:33:34.552Z,19.37
2019-02-14T15:36:03.014Z,18.57
2019-02-14T15:38:32.141Z,20.75
2019-02-14T15:41:01.519Z,17.85
2019-02-14T15:43:29.902Z,18.73
2019-02-14T15:45:58.327Z,19.42
2019-02-14T15:48:26.967Z,19.82
2019-02-14T15:50:56.796Z,18.73
2019-02-14T15:53:25.344Z,20.10
2019-02-14T15:55:53.752Z,19.20
2019-02-14T15:58:22.232Z,20.00
2019-02-14T16:00:51.811Z,21.17
2019-02-14T16:03:20.747Z,20.95
2019-02-14T16:05:49.155Z,21.68
2019-02-14T16:08:19.449Z,20.90
2019-02-14T16:10:49.166Z,20.85
2019-02-14T16:13:17.767Z,22.35
2019-02-14T16:15:46.410Z,20.10
2019-02-14T16:18:14.821Z,22.13
2019-02-14T16:20:44.262Z,21.80
2019-02-14T16:23:12.867Z,21.77
2019-02-14T16:25:41.261Z,22.73
2019-02-14T16:28:11.511Z,22.00
2019-02-14T16:30:39.771Z,23.35
2019-02-14T16:33:08.168Z,22.93
2019-02-14T16:35:36.547Z,23.95
2019-02-14T16:38:04.940Z,24.63
2019-02-14T16:40:38.560Z,23.27
2019-02-14T16:43:03.489Z,23.62
2019-02-14T16:45:31.871Z,25.00
2019-02-14T16:48:00.271Z,24.72
2019-02-14T16:50:28.659Z,24.92
2019-02-14T16:52:57.051Z,25.25
2019-02-14T16:55:25.447Z,23.42
2019-02-14T16:57:53.848Z,24.25
2019-02-14T17:00:22.239Z,24.32
2019-02-14T17:02:50.636Z,24.70
2019-02-14T17:05:19.020Z,24.47
2019-02-14T17:07:47.504Z,25.80
2019-02-14T17:10:15.895Z,23.90
2019-02-14T17:12:44.299Z,23.90
2019-02-14T17:15:12.680Z,25.12
2019-02-14T17:17:41.078Z,24.63
2019-02-14T17:20:11.170Z,24.92
2019-02-14T17:22:39.576Z,23.07
2019-02-14T17:25:08.336Z,24.52
2019-02-14T17:27:36.801Z,23.12
2019-02-14T17:30:07.733Z,23.27
2019-02-14T17:32:36.225Z,23.87
2019-02-14T17:35:05.427Z,24.05
2019-02-14T17:37:33.836Z,25.25
2019-02-14T17:40:02.306Z,24.30
2019-02-14T17:42:30.699Z,24.20
2019-02-14T17:44:59.103Z,23.70
2019-02-14T17:47:27.491Z,25.37
2019-02-14T17:49:55.888Z,25.35
2019-02-14T17:52:24.267Z,23.75
2019-02-14T17:54:52.663Z,23.50
2019-02-14T17:57:21.047Z,25.77
2019-02-14T17:59:49.635Z,25.23
2019-02-14T18:02:18.596Z,24.87
2019-02-14T18:04:46.980Z,25.43
2019-02-14T18:07:15.819Z,21.90
2019-02-14T18:09:44.241Z,23.50
2019-02-14T18:12:12.649Z,21.73
2019-02-14T18:14:41.040Z,21.97
2019-02-14T18:17:09.530Z,20.80
2019-02-14T18:19:37.988Z,21.25
2019-02-14T18:22:06.371Z,21.80
2019-02-14T18:24:34.765Z,21.07
2019-02-14T18:27:03.142Z,20.92
2019-02-14T18:29:31.536Z,21.37
2019-02-14T18:31:59.926Z,22.22
2019-02-14T18:34:28.314Z,23.40
2019-02-14T18:36:56.699Z,22.82
2019-02-14T18:39:44.437Z,22.25
2019-02-14T18:42:12.832Z,22.20
2019-02-14T18:44:41.226Z,21.52
2019-02-14T18:47:09.619Z,23.90
2019-02-14T18:49:38.029Z,23.67
2019-02-14T18:52:06.396Z,22.27
2019-02-14T18:54:34.783Z,23.35
2019-02-14T18:57:03.173Z,24.65
2019-02-14T18:59:31.873Z,24.72
2019-02-14T19:02:00.261Z,22.48
2019-02-14T19:04:28.649Z,24.77
2019-02-14T19:06:57.052Z,24.30
2019-02-14T19:09:25.496Z,24.35
2019-02-14T19:11:53.867Z,24.37
2019-02-14T19:14:22.274Z,22.98
2019-02-14T19:16:50.647Z,25.62
2019-02-14T19:19:19.042Z,22.45
2019-02-14T19:21:47.423Z,23.50
2019-02-14T19:24:15.815Z,24.15
2019-02-14T19:26:44.205Z,24.30
2019-02-14T19:29:12.587Z,21.90
2019-02-14T19:31:41.227Z,21.65
2019-02-14T19:34:09.609Z,20.92
2019-02-14T19:36:38.000Z,22.10
2019-02-14T19:39:06.381Z,22.95
2019-02-14T19:41:34.775Z,22.35
2019-02-14T19:44:03.154Z,21.87
2019-02-14T19:46:31.560Z,23.95
2019-02-14T19:48:59.943Z,22.42
2019-02-14T19:51:28.349Z,23.02
2019-02-14T19:53:56.731Z,24.47
2019-02-14T19:56:25.124Z,23.98
2019-02-14T19:58:53.509Z,24.45
2019-02-14T20:01:21.900Z,22.85
2019-02-14T20:03:50.276Z,24.82
2019-02-14T20:06:18.663Z,24.92
2019-02-14T20:08:47.048Z,23.18
2019-02-14T20:11:15.439Z,24.80
2019-02-14T20:13:49.592Z,24.60
2019-02-14T20:16:13.955Z,25.68
2019-02-14T20:18:42.330Z,24.90
2019-02-14T20:21:10.724Z,23.67
2019-02-14T20:23:39.104Z,25.30
2019-02-14T20:26:07.500Z,23.05
2019-02-14T20:28:35.901Z,24.23
2019-02-14T20:31:04.289Z,23.62
2019-02-14T20:33:32.671Z,24.65
2019-02-14T20:36:01.071Z,25.72
2019-02-14T20:38:29.457Z,23.35
2019-02-14T20:40:57.851Z,23.40
2019-02-14T20:43:26.308Z,23.47
2019-02-14T20:45:54.768Z,23.42
2019-02-14T20:48:23.225Z,23.57
2019-02-14T20:50:51.617Z,23.77
2019-02-14T20:53:20.049Z,23.40
2019-02-14T20:55:48.428Z,23.32
2019-02-14T20:58:16.891Z,23.47
2019-02-14T21:00:45.291Z,22.60
2019-02-14T21:03:13.679Z,23.25
2019-02-14T21:05:42.063Z,22.50
2019-02-14T21:08:10.523Z,23.35
2019-02-14T21:10:38.908Z,22.95
2019-02-14T21:13:07.564Z,22.42
2019-02-14T21:15:35.931Z,21.60
2019-02-14T21:18:04.319Z,21.42
2019-02-14T21:20:32.708Z,21.73
2019-02-14T21:23:01.147Z,22.00
2019-02-14T21:25:29.572Z,22.73
2019-02-14T21:27:58.199Z,22.35
2019-02-14T21:30:26.589Z,24.00
2019-02-14T21:32:55.052Z,22.90
2019-02-14T21:35:23.514Z,23.73
2019-02-14T21:37:51.900Z,23.98
2019-02-14T21:40:20.577Z,23.65
2019-02-14T21:42:49.114Z,22.55
2019-02-14T21:45:18.222Z,21.80
2019-02-14T21:47:46.738Z,23.18
2019-02-14T21:50:15.985Z,22.07
2019-02-14T21:52:44.681Z,23.22
2019-02-14T21:55:14.344Z,23.85
2019-02-14T21:57:42.815Z,23.00
2019-02-14T22:00:19.979Z,23.90
2019-02-14T22:02:48.921Z,22.22
2019-02-14T22:05:17.498Z,23.15
2019-02-14T22:07:45.881Z,23.22
2019-02-14T22:10:14.288Z,24.02
2019-02-14T22:12:43.989Z,23.38
2019-02-14T22:15:18.631Z,22.62
2019-02-14T22:17:47.012Z,22.55
2019-02-14T22:20:15.409Z,23.18
2019-02-14T22:22:43.790Z,22.95
2019-02-14T22:25:12.194Z,21.82
2019-02-14T22:27:41.049Z,22.80
2019-02-14T22:30:15.925Z,21.55
2019-02-14T22:32:45.039Z,20.72
2019-02-14T22:35:13.672Z,21.42
2019-02-14T22:37:42.053Z,21.40
2019-02-14T22:40:11.679Z,22.17
2019-02-14T22:42:46.509Z,21.50
2019-02-14T22:45:13.578Z,20.88
2019-02-14T22:47:43.388Z,22.05
2019-02-14T22:50:12.319Z,21.67
2019-02-14T22:52:40.707Z,22.50
2019-02-14T22:55:10.666Z,21.40
2019-02-14T22:57:39.054Z,21.95
2019-02-14T23:00:13.420Z,17.17
2019-02-14T23:02:41.811Z,21.68
2019-02-14T23:05:10.807Z,20.88
2019-02-14T23:07:39.187Z,19.77
2019-02-14T23:10:07.575Z,19.37
2019-02-14T23:12:36.027Z,22.30
2019-02-14T23:15:06.475Z,19.60
2019-02-14T23:17:34.864Z,19.02
2019-02-14T23:20:03.545Z,20.12
2019-02-14T23:22:31.940Z,19.35
2019-02-14T23:25:00.320Z,18.65
2019-02-14T23:27:28.711Z,20.45
2019-02-14T23:29:57.095Z,19.17
2019-02-14T23:32:27.072Z,18.23
2019-02-14T23:34:55.652Z,18.52
2019-02-14T23:37:24.047Z,18.10
2019-02-14T23:39:52.430Z,18.52
2019-02-14T23:42:20.887Z,17.80
2019-02-14T23:44:49.277Z,17.70
2019-02-14T23:47:17.673Z,18.02
2019-02-14T23:49:46.060Z,19.17
2019-02-14T23:52:14.447Z,19.50
2019-02-14T23:54:42.831Z,18.92
2019-02-14T23:57:11.229Z,19.75
2019-02-14T23:59:39.600Z,19.45
